Terminal Aerodrome Forecast
Issued by NWS

Home | Current Version | Previous Version | Text Only | Print | Product List | Glossary On
Versions: 1 2 3 4 5 6 7 8 9 10 11 12 13 14 15
000
FTUS43 KICT 181100
TAFSLN
TAF
KSLN 181132Z 1812/1912 01005KT P6SM FEW300
     FM182000 06007KT P6SM SCT300
     FM190100 10005KT P6SM SCT300
     FM190600 15005KT P6SM BKN300=

USA.gov is the U.S. government's official web portal to all federal, state and local government web resources and services.